Time;durP1;ratioP1;P1;durP2;ratioP2;P2;SDS_P1;SDS_P2;PMS_P1;PMS_P2;Temp;Humidity;BMP_temperature;BMP_pressure;BME280_temperature;BME280_humidity;BME280_pressure;Samples;Min_cycle;Max_cycle;Signal;HPM_P1;HPM_P2
2024/04/25 08:03:39;;;;;;;;;;;;;;;9.68;100.00;98834.47;5294031;27;19934;-80
2024/04/25 08:06:04;;;;;;;;;;;;;;;9.69;100.00;98833.53;5293435;27;19939;-79
2024/04/25 08:08:31;;;;;;;;;;;;;;;9.71;100.00;98831.66;5292881;27;20217;-79
2024/04/25 08:10:56;;;;;;;;;;;;;;;9.67;100.00;98838.03;5294136;27;19942;-79
2024/04/25 08:13:22;;;;;;;;;;;;;;;9.67;100.00;98835.38;5293971;27;19931;-79
2024/04/25 08:15:47;;;;;;;;;;;;;;;9.70;100.00;98827.28;5291976;27;19942;-78
2024/04/25 08:18:13;;;;;;;;;;;;;;;9.68;100.00;98830.03;5293511;27;20257;-84
2024/04/25 08:20:38;;;;;;;;;;;;;;;9.70;100.00;98829.94;5294219;27;20273;-79
2024/04/25 08:23:03;;;;;;;;;;;;;;;9.69;100.00;98833.53;5293333;27;19942;-80
2024/04/25 08:25:29;;;;;;;;;;;;;;;9.69;100.00;98825.59;5293024;27;20293;-79
2024/04/25 08:27:55;;;;;;;;;;;;;;;9.70;100.00;98822.00;5293216;27;20365;-82
2024/04/25 08:30:20;;;;;;;;;;;;;;;9.70;100.00;98832.59;5290535;27;19931;-80
2024/04/25 08:32:46;;;;;;;;;;;;;;;9.70;100.00;98827.28;5294734;27;20385;-78
2024/04/25 08:35:11;;;;;;;;;;;;;;;9.69;100.00;98825.59;5293138;27;19939;-79
2024/04/25 08:37:37;;;;;;;;;;;;;;;9.69;100.00;98828.25;5294597;27;20001;-82
2024/04/25 08:40:03;;;;;;;;;;;;;;;9.69;100.00;98831.75;5292991;27;19938;-80
2024/04/25 08:42:29;;;;;;;;;;;;;;;9.70;100.00;98828.16;5293488;27;19970;-83
2024/04/25 08:44:55;;;;;;;;;;;;;;;9.75;100.00;98826.13;5291579;26;20751;-80
2024/04/25 08:47:20;;;;;;;;;;;;;;;9.70;100.00;98832.59;5291288;27;20024;-80
2024/04/25 08:49:49;;;;;;;;;;;;;;;9.73;100.00;98828.00;5292283;27;19942;-82
2024/04/25 08:52:19;;;;;;;;;;;;;;;9.74;100.00;98828.84;5291552;27;19938;-82
2024/04/25 08:54:46;;;;;;;;;;;;;;;9.71;100.00;98819.28;5292772;27;19932;-81
2024/04/25 08:57:11;;;;;;;;;;;;;;;9.74;100.00;98823.56;5292495;27;20002;-79
2024/04/25 08:59:37;;;;;;;;;;;;;;;9.75;100.00;98825.28;5292770;27;20330;-80
2024/04/25 09:02:03;;;;;;;;;;;;;;;9.75;100.00;98815.53;5290768;27;20001;-85
2024/04/25 09:04:29;;;;;;;;;;;;;;;9.78;100.00;98807.44;5306374;26;19935;-80
2024/04/25 09:06:54;;;;;;;;;;;;;;;9.78;100.00;98820.66;5292521;27;20010;-80
2024/04/25 09:09:23;;;;;;;;;;;;;;;9.77;100.00;98815.47;5294770;27;19963;-80
2024/04/25 09:11:53;;;;;;;;;;;;;;;9.79;100.00;98816.22;5297415;27;20154;-88
2024/04/25 09:14:19;;;;;;;;;;;;;;;9.78;100.00;98815.38;5296269;26;19930;-83
2024/04/25 09:16:44;;;;;;;;;;;;;;;9.83;100.00;98817.75;5295152;27;19930;-84
2024/04/25 09:19:09;;;;;;;;;;;;;;;9.82;100.00;98821.34;5296077;27;19942;-80
2024/04/25 09:21:38;;;;;;;;;;;;;;;9.83;100.00;98817.75;5295616;27;19936;-80
2024/04/25 09:24:03;;;;;;;;;;;;;;;9.83;100.00;98809.81;5293852;27;19938;-80
2024/04/25 09:26:30;;;;;;;;;;;;;;;9.84;100.00;98810.66;5296195;27;20632;-80
2024/04/25 09:28:56;;;;;;;;;;;;;;;9.84;100.00;98813.31;5294792;27;19931;-81
2024/04/25 09:31:21;;;;;;;;;;;;;;;9.84;100.00;98816.81;5294400;26;19946;-81
2024/04/25 09:33:46;;;;;;;;;;;;;;;9.84;100.00;98803.56;5295611;27;20001;-81
2024/04/25 09:36:13;;;;;;;;;;;;;;;9.83;100.00;98807.19;5294654;27;20272;-81
2024/04/25 09:38:39;;;;;;;;;;;;;;;9.82;100.00;98805.47;5294411;27;19931;-81
2024/04/25 09:41:07;;;;;;;;;;;;;;;9.81;100.00;98804.63;5295460;27;19937;-78
2024/04/25 09:43:32;;;;;;;;;;;;;;;9.82;100.00;98802.81;5297042;26;19942;-81
2024/04/25 09:45:59;;;;;;;;;;;;;;;9.83;100.00;98799.25;5293966;27;19935;-80
2024/04/25 09:48:28;;;;;;;;;;;;;;;9.85;100.00;98797.34;5295361;27;20304;-81
2024/04/25 09:50:56;;;;;;;;;;;;;;;9.82;100.00;98792.25;5295293;27;19942;-80
2024/04/25 09:53:27;;;;;;;;;;;;;;;9.83;100.00;98791.31;5296421;27;19939;-80
2024/04/25 09:55:53;;;;;;;;;;;;;;;9.85;100.00;98780.63;5293702;27;19931;-81
2024/04/25 09:58:30;;;;;;;;;;;;;;;9.84;100.00;98785.06;5295381;27;19938;-80
2024/04/25 10:00:56;;;;;;;;;;;;;;;9.85;100.00;98778.84;5294957;26;19947;-80
2024/04/25 10:03:21;;;;;;;;;;;;;;;9.88;100.00;98777.81;5293492;27;20001;-81
2024/04/25 10:05:47;;;;;;;;;;;;;;;9.87;100.00;98779.59;5296212;27;20269;-80
2024/04/25 10:08:12;;;;;;;;;;;;;;;9.87;100.00;98770.81;5308068;27;20246;-81
2024/04/25 10:10:37;;;;;;;;;;;;;;;9.88;100.00;98773.38;5294317;27;19946;-80
2024/04/25 10:13:03;;;;;;;;;;;;;;;9.89;100.00;98777.75;5293790;27;19939;-82
2024/04/25 10:15:29;;;;;;;;;;;;;;;9.87;100.00;98770.81;5291794;27;20299;-84
2024/04/25 10:17:54;;;;;;;;;;;;;;;9.89;100.00;98775.09;5302855;26;19967;-81
2024/04/25 10:20:20;;;;;;;;;;;;;;;9.90;100.00;98770.66;5295066;26;19934;-81
2024/04/25 10:22:55;;;;;;;;;;;;;;;8.94;100.00;98772.31;5294794;27;19942;-85
2024/04/25 10:25:20;;;;;;;;;;;;;;;7.69;100.00;98775.78;5294776;27;19942;-84
2024/04/25 10:27:54;;;;;;;;;;;;;;;7.41;100.00;98770.03;5294947;27;20598;-81
2024/04/25 10:30:19;;;;;;;;;;;;;;;7.31;100.00;98770.50;5293198;27;19938;-80
2024/04/25 10:32:44;;;;;;;;;;;;;;;7.09;100.00;98772.34;5296307;27;19935;-85
2024/04/25 10:35:12;;;;;;;;;;;;;;;7.07;100.00;98765.44;5294598;27;19931;-85
2024/04/25 10:37:40;;;;;;;;;;;;;;;6.96;100.00;98773.81;5294352;27;19930;-80
2024/04/25 10:40:11;;;;;;;;;;;;;;;6.91;100.00;98767.91;5295651;27;20365;-82
2024/04/25 10:42:36;;;;;;;;;;;;;;;6.90;100.00;98766.19;5294388;26;19931;-88
2024/04/25 10:45:02;;;;;;;;;;;;;;;6.82;100.00;98758.63;5291353;27;20269;-80
2024/04/25 10:47:28;;;;;;;;;;;;;;;6.78;100.00;98753.53;5295186;27;19930;-81
2024/04/25 10:49:54;;;;;;;;;;;;;;;6.72;100.00;98755.53;5294819;26;20334;-89
2024/04/25 10:52:20;;;;;;;;;;;;;;;6.62;100.00;98756.88;5294172;27;19931;-91
2024/04/25 10:54:45;;;;;;;;;;;;;;;6.54;100.00;98756.31;5292998;27;19941;-87
2024/04/25 10:57:12;;;;;;;;;;;;;;;6.50;100.00;98750.31;5295270;27;19931;-88
2024/04/25 10:59:37;;;;;;;;;;;;;;;6.49;100.00;98747.75;5295028;27;19943;-83
2024/04/25 11:02:03;;;;;;;;;;;;;;;6.41;100.00;98742.81;5291225;27;20334;-79
2024/04/25 11:04:35;;;;;;;;;;;;;;;6.34;100.00;98750.13;5292841;27;19962;-87
2024/04/25 11:07:01;;;;;;;;;;;;;;;6.36;100.00;98750.91;5293663;27;19937;-82
2024/04/25 11:09:26;;;;;;;;;;;;;;;6.29;100.00;98749.47;5292563;27;20363;-78
2024/04/25 11:11:52;;;;;;;;;;;;;;;6.28;100.00;98742.47;5294075;27;20439;-81
2024/04/25 11:14:17;;;;;;;;;;;;;;;6.23;100.00;98739.19;5292890;27;19937;-87
2024/04/25 11:16:42;;;;;;;;;;;;;;;6.24;100.00;98745.31;5293363;27;19931;-86
2024/04/25 11:19:08;;;;;;;;;;;;;;;6.24;100.00;98740.91;5294420;27;19966;-83
2024/04/25 11:21:33;;;;;;;;;;;;;;;6.21;100.00;98737.53;5294084;27;19938;-82
2024/04/25 11:23:59;;;;;;;;;;;;;;;6.20;100.00;98738.47;5295843;27;19931;-86
2024/04/25 11:26:25;;;;;;;;;;;;;;;6.15;100.00;98730.78;5293931;27;19931;-80
2024/04/25 11:28:53;;;;;;;;;;;;;;;6.16;100.00;98735.13;5292737;27;19963;-82
2024/04/25 11:31:19;;;;;;;;;;;;;;;6.17;100.00;98732.44;5290361;27;19938;-90
2024/04/25 11:33:44;;;;;;;;;;;;;;;6.18;100.00;98726.22;5294508;26;20003;-79
2024/04/25 11:36:19;;;;;;;;;;;;;;;6.14;100.00;98731.69;5295290;27;19938;-82
2024/04/25 11:38:44;;;;;;;;;;;;;;;6.21;100.00;98730.53;5293629;27;19942;-81
2024/04/25 11:41:10;;;;;;;;;;;;;;;6.28;100.00;98729.31;5294065;27;19931;-80
2024/04/25 11:43:37;;;;;;;;;;;;;;;6.41;100.00;98713.88;5293698;27;19930;-86
2024/04/25 11:46:03;;;;;;;;;;;;;;;6.37;100.00;98720.22;5293052;27;19931;-78
2024/04/25 11:48:29;;;;;;;;;;;;;;;6.66;100.00;98708.41;5294098;27;20438;-85
2024/04/25 11:50:54;;;;;;;;;;;;;;;6.69;100.00;98717.97;5291713;27;19938;-83
2024/04/25 11:53:22;;;;;;;;;;;;;;;6.64;100.00;98720.78;5287822;27;20001;-84
2024/04/25 11:55:48;;;;;;;;;;;;;;;6.53;100.00;98718.63;5294224;26;19937;-82
2024/04/25 11:58:13;;;;;;;;;;;;;;;6.50;100.00;98725.81;5293082;27;19943;-81
2024/04/25 12:00:38;;;;;;;;;;;;;;;6.50;100.00;98720.53;5291796;27;19938;-83
2024/04/25 12:03:04;;;;;;;;;;;;;;;6.50;100.00;98710.00;5294266;26;20350;-81
2024/04/25 12:05:32;;;;;;;;;;;;;;;6.43;100.00;98708.56;5293925;27;20282;-83
2024/04/25 12:08:03;;;;;;;;;;;;;;;6.41;100.00;98723.56;5293751;27;20363;-85
2024/04/25 12:10:31;;;;;;;;;;;;;;;6.28;100.00;98710.06;5306006;26;19930;-83
2024/04/25 12:12:56;;;;;;;;;;;;;;;6.31;100.00;98713.41;5293330;27;19974;-79
2024/04/25 12:15:21;;;;;;;;;;;;;;;6.26;100.00;98714.53;5292116;27;19931;-80
2024/04/25 12:17:46;;;;;;;;;;;;;;;6.29;100.00;98710.00;5293860;26;20010;-79
2024/04/25 12:20:12;;;;;;;;;;;;;;;6.27;100.00;98708.34;5293577;27;20001;-79
2024/04/25 12:22:37;;;;;;;;;;;;;;;6.25;100.00;98702.31;5293154;27;19938;-79
2024/04/25 12:25:03;;;;;;;;;;;;;;;6.21;100.00;98706.84;5293482;27;19939;-79
2024/04/25 12:27:28;;;;;;;;;;;;;;;6.18;100.00;98697.31;5293776;27;20269;-80
2024/04/25 12:29:53;;;;;;;;;;;;;;;6.09;100.00;98699.47;5292733;27;19947;-80
2024/04/25 12:32:19;;;;;;;;;;;;;;;5.91;100.00;98707.16;5291464;27;20259;-80
2024/04/25 12:34:44;;;;;;;;;;;;;;;5.89;100.00;98698.50;5293606;27;20268;-80
2024/04/25 12:37:09;;;;;;;;;;;;;;;5.76;100.00;98697.25;5291787;27;19935;-80
2024/04/25 12:39:40;;;;;;;;;;;;;;;5.61;100.00;98696.97;5293146;27;19935;-78
2024/04/25 12:42:06;;;;;;;;;;;;;;;5.78;100.00;98698.06;5294501;27;20235;-84
2024/04/25 12:44:31;;;;;;;;;;;;;;;5.78;100.00;98700.69;5297343;27;20654;-82
2024/04/25 12:46:57;;;;;;;;;;;;;;;5.74;100.00;98696.47;5293928;27;19930;-81
2024/04/25 12:49:32;;;;;;;;;;;;;;;5.94;100.00;98693.88;5296735;27;20270;-84
2024/04/25 12:51:58;;;;;;;;;;;;;;;5.86;100.00;98706.50;5295435;27;19946;-79
2024/04/25 12:54:23;;;;;;;;;;;;;;;6.02;100.00;98706.75;5296317;27;20260;-79
2024/04/25 12:56:49;;;;;;;;;;;;;;;5.96;100.00;98692.06;5293521;27;19942;-82
2024/04/25 12:59:15;;;;;;;;;;;;;;;5.82;100.00;98705.78;5296939;27;19939;-82
2024/04/25 13:01:40;;;;;;;;;;;;;;;5.91;100.00;98708.94;5295188;27;19995;-83
2024/04/25 13:04:06;;;;;;;;;;;;;;;5.88;100.00;98709.06;5296154;27;19939;-85
2024/04/25 13:06:31;;;;;;;;;;;;;;;6.12;100.00;98701.97;5295826;27;19946;-81
2024/04/25 13:08:56;;;;;;;;;;;;;;;6.06;100.00;98704.84;5296541;27;19975;-78
2024/04/25 13:11:21;;;;;;;;;;;;;;;6.06;100.00;98702.22;5296310;27;19935;-79
2024/04/25 13:13:47;;;;;;;;;;;;;;;6.04;100.00;98701.44;5295846;27;19946;-83
2024/04/25 13:16:12;;;;;;;;;;;;;;;6.20;100.00;98706.91;5294132;27;19943;-83
2024/04/25 13:18:37;;;;;;;;;;;;;;;6.09;100.00;98713.47;5294495;27;19937;-78
2024/04/25 13:21:03;;;;;;;;;;;;;;;6.17;100.00;98708.75;5296180;27;19931;-82
2024/04/25 13:23:28;;;;;;;;;;;;;;;6.24;100.00;98698.81;5322125;26;19931;-83
2024/04/25 13:25:53;;;;;;;;;;;;;;;6.27;100.00;98706.59;5295420;27;19931;-79
2024/04/25 13:28:19;;;;;;;;;;;;;;;6.24;100.00;98706.72;5296190;27;20354;-82
2024/04/25 13:30:44;;;;;;;;;;;;;;;6.23;100.00;98699.75;5294452;27;20266;-82
2024/04/25 13:33:09;;;;;;;;;;;;;;;6.30;100.00;98702.97;5294013;27;19931;-79
2024/04/25 13:35:34;;;;;;;;;;;;;;;6.34;100.00;98696.66;5295461;27;20001;-82
2024/04/25 13:38:00;;;;;;;;;;;;;;;6.47;100.00;98703.09;5294395;27;20360;-80
2024/04/25 13:40:25;;;;;;;;;;;;;;;6.30;100.00;98690.69;5296239;27;19964;-80
2024/04/25 13:42:52;;;;;;;;;;;;;;;6.38;100.00;98687.69;5295258;27;19935;-79
2024/04/25 13:45:17;;;;;;;;;;;;;;;6.33;100.00;98694.94;5294422;27;19934;-81
2024/04/25 13:47:42;;;;;;;;;;;;;;;6.48;100.00;98689.03;5296150;27;19938;-79
2024/04/25 13:50:08;;;;;;;;;;;;;;;6.54;100.00;98683.50;5295379;27;20001;-81
2024/04/25 13:52:33;;;;;;;;;;;;;;;6.28;100.00;98687.25;5295083;27;19942;-80
2024/04/25 13:54:58;;;;;;;;;;;;;;;6.36;100.00;98679.88;5295053;27;19938;-85
2024/04/25 13:57:24;;;;;;;;;;;;;;;6.52;100.00;98673.94;5294402;27;19931;-79
2024/04/25 13:59:49;;;;;;;;;;;;;;;6.54;100.00;98672.97;5294370;27;20246;-80
2024/04/25 14:02:14;;;;;;;;;;;;;;;6.55;100.00;98663.28;5296083;27;19938;-81
2024/04/25 14:04:40;;;;;;;;;;;;;;;6.67;100.00;98661.88;5295501;27;19931;-77
2024/04/25 14:07:05;;;;;;;;;;;;;;;6.83;100.00;98654.13;5294817;27;19939;-79
2024/04/25 14:09:30;;;;;;;;;;;;;;;6.55;100.00;98652.75;5293721;27;19943;-78
2024/04/25 14:11:55;;;;;;;;;;;;;;;6.65;100.00;98651.44;5295479;27;20421;-77
2024/04/25 14:14:21;;;;;;;;;;;;;;;6.65;100.00;98651.44;5295004;26;19931;-78
2024/04/25 14:16:46;;;;;;;;;;;;;;;6.61;100.00;98647.22;5293731;27;19931;-81
2024/04/25 14:19:11;;;;;;;;;;;;;;;6.57;100.00;98647.41;5296421;27;19942;-86
2024/04/25 14:21:37;;;;;;;;;;;;;;;6.58;100.00;98641.25;5293129;27;19931;-79
2024/04/25 14:24:02;;;;;;;;;;;;;;;6.53;100.00;98639.66;5295451;27;20365;-77
2024/04/25 14:29:11;;;;;;;;;;;;;;;6.76;100.00;98631.66;5295424;27;20064;-85
2024/04/25 14:31:36;;;;;;;;;;;;;;;6.70;100.00;98630.16;5291424;27;19989;-81
2024/04/25 14:34:01;;;;;;;;;;;;;;;6.56;100.00;98633.41;5293089;27;20289;-79
2024/04/25 14:36:27;;;;;;;;;;;;;;;6.68;100.00;98629.38;5293848;27;20439;-79
2024/04/25 14:38:52;;;;;;;;;;;;;;;6.78;100.00;98629.81;5294989;27;19931;-83
2024/04/25 14:41:18;;;;;;;;;;;;;;;6.71;100.00;98629.22;5292711;27;20339;-82
2024/04/25 14:43:43;;;;;;;;;;;;;;;6.59;100.00;98625.38;5296177;27;20005;-82
2024/04/25 14:46:08;;;;;;;;;;;;;;;6.73;100.00;98625.63;5291272;27;20010;-81
2024/04/25 14:48:34;;;;;;;;;;;;;;;6.58;100.00;98615.78;5296069;27;19938;-80
2024/04/25 14:50:59;;;;;;;;;;;;;;;6.73;100.00;98624.75;5294411;27;19938;-79
2024/04/25 14:53:25;;;;;;;;;;;;;;;6.68;100.00;98619.69;5294861;27;19930;-82
2024/04/25 14:55:51;;;;;;;;;;;;;;;6.61;100.00;98622.69;5293163;27;19938;-83
2024/04/25 14:58:16;;;;;;;;;;;;;;;6.54;100.00;98620.31;5294071;27;20251;-79
2024/04/25 15:00:42;;;;;;;;;;;;;;;6.65;100.00;98618.97;5291395;27;20004;-83
2024/04/25 15:03:07;;;;;;;;;;;;;;;6.78;100.00;98614.00;5295367;26;20287;-82
2024/04/25 15:05:33;;;;;;;;;;;;;;;6.82;100.00;98611.16;5294043;26;19931;-84
2024/04/25 15:07:58;;;;;;;;;;;;;;;6.80;100.00;98601.66;5291425;27;19932;-86
2024/04/25 15:10:23;;;;;;;;;;;;;;;6.63;100.00;98603.25;5294572;27;19935;-80
2024/04/25 15:12:49;;;;;;;;;;;;;;;6.62;100.00;98601.56;5293026;27;20359;-80
2024/04/25 15:15:14;;;;;;;;;;;;;;;6.73;100.00;98596.66;5293419;27;19931;-81
2024/04/25 15:17:40;;;;;;;;;;;;;;;6.59;100.00;98592.94;5294245;27;20000;-81
2024/04/25 15:20:06;;;;;;;;;;;;;;;6.72;100.00;98591.47;5294095;27;19938;-82
2024/04/25 15:22:32;;;;;;;;;;;;;;;6.81;100.00;98598.06;5292813;27;19931;-83
2024/04/25 15:24:57;;;;;;;;;;;;;;;6.82;100.00;98597.16;5293366;27;19931;-81
2024/04/25 15:27:22;;;;;;;;;;;;;;;6.64;100.00;98591.81;5293922;27;20097;-82
2024/04/25 15:29:48;;;;;;;;;;;;;;;6.87;100.00;98592.53;5291554;27;19931;-84
2024/04/25 15:32:21;;;;;;;;;;;;;;;6.81;100.00;98584.91;5292444;27;20524;-94
2024/04/25 15:34:46;;;;;;;;;;;;;;;6.75;100.00;98586.06;5307284;26;19930;-82
2024/04/25 15:37:11;;;;;;;;;;;;;;;6.82;100.00;98586.63;5294694;27;19938;-78
2024/04/25 15:39:37;;;;;;;;;;;;;;;6.83;100.00;98588.31;5293196;27;19935;-83
2024/04/25 15:42:02;;;;;;;;;;;;;;;6.81;100.00;98590.16;5291835;27;19931;-82
2024/04/25 15:44:27;;;;;;;;;;;;;;;6.93;100.00;98584.34;5296316;27;20286;-85
2024/04/25 15:46:57;;;;;;;;;;;;;;;6.95;100.00;98582.47;5292914;27;19931;-90
2024/04/25 15:49:22;;;;;;;;;;;;;;;6.91;100.00;98580.94;5291128;27;19931;-85
2024/04/25 15:51:47;;;;;;;;;;;;;;;6.89;100.00;98582.75;5293753;27;19941;-82
2024/04/25 15:54:13;;;;;;;;;;;;;;;7.00;100.00;98577.84;5295140;27;19943;-80
2024/04/25 15:56:38;;;;;;;;;;;;;;;7.06;100.00;98577.53;5292911;27;19931;-80
2024/04/25 15:59:03;;;;;;;;;;;;;;;7.11;100.00;98572.06;5294121;27;20278;-80
2024/04/25 16:01:28;;;;;;;;;;;;;;;7.06;100.00;98567.00;5293173;27;19931;-78
2024/04/25 16:03:54;;;;;;;;;;;;;;;7.11;100.00;98576.50;5291820;27;19931;-80
2024/04/25 16:06:20;;;;;;;;;;;;;;;7.15;100.00;98564.84;5293946;27;20002;-82
2024/04/25 16:08:46;;;;;;;;;;;;;;;7.01;100.00;98562.91;5292182;27;19931;-83
2024/04/25 16:11:11;;;;;;;;;;;;;;;7.06;100.00;98567.00;5291452;27;19941;-80
2024/04/25 16:13:37;;;;;;;;;;;;;;;7.03;100.00;98561.88;5293590;27;19930;-82
2024/04/25 16:16:02;;;;;;;;;;;;;;;7.01;100.00;98562.91;5291014;27;19958;-80
2024/04/25 16:18:28;;;;;;;;;;;;;;;6.93;100.00;98555.38;5294180;26;19931;-81
2024/04/25 16:20:53;;;;;;;;;;;;;;;6.94;100.00;98558.84;5292915;27;20256;-84
2024/04/25 16:23:18;;;;;;;;;;;;;;;7.05;100.00;98561.81;5294546;27;19937;-83
2024/04/25 16:25:44;;;;;;;;;;;;;;;7.02;100.00;98552.31;5292034;27;19979;-84
2024/04/25 16:28:10;;;;;;;;;;;;;;;7.06;100.00;98545.09;5294381;27;19935;-84
2024/04/25 16:30:35;;;;;;;;;;;;;;;7.13;100.00;98543.84;5289905;27;19930;-82
2024/04/25 16:33:00;;;;;;;;;;;;;;;7.09;100.00;98550.22;5293776;27;19963;-83
2024/04/25 16:35:25;;;;;;;;;;;;;;;7.09;100.00;98544.94;5292400;27;19936;-82
2024/04/25 16:37:52;;;;;;;;;;;;;;;7.08;100.00;98552.00;5293317;27;19964;-83
2024/04/25 16:40:17;;;;;;;;;;;;;;;6.99;100.00;98551.56;5291419;27;19931;-83
2024/04/25 16:42:43;;;;;;;;;;;;;;;7.05;100.00;98546.00;5292765;27;19939;-83
2024/04/25 16:45:08;;;;;;;;;;;;;;;7.11;100.00;98547.50;5292901;27;19955;-83
2024/04/25 16:47:33;;;;;;;;;;;;;;;7.12;100.00;98547.44;5292738;27;19937;-83
2024/04/25 16:49:58;;;;;;;;;;;;;;;7.05;100.00;98541.63;5293017;27;19950;-82
2024/04/25 16:52:23;;;;;;;;;;;;;;;7.03;100.00;98543.44;5291760;27;19964;-83
2024/04/25 16:54:49;;;;;;;;;;;;;;;7.11;100.00;98544.88;5292242;27;19937;-84
2024/04/25 16:57:14;;;;;;;;;;;;;;;7.20;100.00;98539.16;5293200;27;19935;-85
2024/04/25 16:59:40;;;;;;;;;;;;;;;7.15;100.00;98539.38;5292868;27;19931;-88
2024/04/25 17:02:06;;;;;;;;;;;;;;;7.04;100.00;98541.69;5291016;27;19931;-81
2024/04/25 17:04:31;;;;;;;;;;;;;;;7.01;100.00;98534.78;5293309;26;19939;-82
2024/04/25 17:06:57;;;;;;;;;;;;;;;7.15;100.00;98533.25;5293404;27;19937;-82
2024/04/25 17:09:24;;;;;;;;;;;;;;;7.13;100.00;98532.47;5293368;27;19966;-82
2024/04/25 17:11:50;;;;;;;;;;;;;;;7.13;100.00;98527.22;5292900;26;19931;-82
2024/04/25 17:14:15;;;;;;;;;;;;;;;7.09;100.00;98532.63;5291688;27;19931;-79
2024/04/25 17:16:41;;;;;;;;;;;;;;;7.05;100.00;98525.81;5291336;27;19970;-79
2024/04/25 17:19:06;;;;;;;;;;;;;;;7.18;100.00;98525.19;5289661;27;19938;-79
2024/04/25 17:21:33;;;;;;;;;;;;;;;7.07;100.00;98525.75;5292707;27;19931;-80
2024/04/25 17:23:59;;;;;;;;;;;;;;;7.17;100.00;98518.25;5291501;27;19931;-79
2024/04/25 17:26:25;;;;;;;;;;;;;;;7.05;100.00;98519.66;5293080;26;20000;-79
2024/04/25 17:28:51;;;;;;;;;;;;;;;6.96;100.00;98523.63;5290194;27;19939;-80
2024/04/25 17:31:20;;;;;;;;;;;;;;;7.02;100.00;98525.09;5307067;26;19931;-83
2024/04/25 17:33:45;;;;;;;;;;;;;;;6.98;100.00;98521.75;5309402;27;19942;-82
2024/04/25 17:36:11;;;;;;;;;;;;;;;6.93;100.00;98522.91;5295310;27;19937;-82
2024/04/25 17:38:39;;;;;;;;;;;;;;;6.96;100.00;98520.16;5293808;27;19938;-80
2024/04/25 17:41:04;;;;;;;;;;;;;;;7.01;100.00;98523.41;5295531;27;19942;-80
2024/04/25 17:43:30;;;;;;;;;;;;;;;7.03;100.00;98517.13;5294745;27;19938;-82
2024/04/25 17:45:55;;;;;;;;;;;;;;;7.05;100.00;98517.91;5292461;27;20367;-81
2024/04/25 17:48:21;;;;;;;;;;;;;;;7.06;100.00;98510.84;5294985;27;19938;-82
2024/04/25 17:50:46;;;;;;;;;;;;;;;7.12;100.00;98520.25;5295424;27;19931;-83
2024/04/25 17:53:12;;;;;;;;;;;;;;;7.05;100.00;98519.66;5292950;27;19932;-81
2024/04/25 17:55:37;;;;;;;;;;;;;;;7.00;100.00;98514.63;5293511;27;19935;-78
2024/04/25 17:58:03;;;;;;;;;;;;;;;6.99;100.00;98510.31;5295710;27;20059;-77
2024/04/25 18:00:28;;;;;;;;;;;;;;;7.07;100.00;98517.84;5295128;27;19943;-79
2024/04/25 18:02:56;;;;;;;;;;;;;;;7.06;100.00;98519.59;5295941;27;19958;-79
2024/04/25 18:05:21;;;;;;;;;;;;;;;7.05;100.00;98515.28;5293143;27;19937;-82
2024/04/25 18:07:46;;;;;;;;;;;;;;;7.08;100.00;98520.41;5294043;27;19978;-78
2024/04/25 18:10:11;;;;;;;;;;;;;;;7.04;100.00;98516.19;5296035;27;19934;-83
2024/04/25 18:12:37;;;;;;;;;;;;;;;7.17;100.00;98515.59;5292357;27;19958;-81
2024/04/25 18:15:02;;;;;;;;;;;;;;;7.12;100.00;98521.09;5294758;27;20354;-79
2024/04/25 18:17:28;;;;;;;;;;;;;;;7.14;100.00;98521.88;5294805;27;20274;-82
2024/04/25 18:19:55;;;;;;;;;;;;;;;7.15;100.00;98520.06;5294874;27;19930;-79
2024/04/25 18:22:23;;;;;;;;;;;;;;;7.15;100.00;98523.59;5294866;27;19934;-78
2024/04/25 18:24:48;;;;;;;;;;;;;;;7.65;100.00;98514.06;5292827;27;20001;-78
2024/04/25 18:27:14;;;;;;;;;;;;;;;7.26;100.00;98513.38;5294563;27;19947;-83
2024/04/25 18:29:41;;;;;;;;;;;;;;;7.25;100.00;98522.19;5293598;27;19939;-80
2024/04/25 18:32:08;;;;;;;;;;;;;;;7.22;100.00;98516.22;5293219;27;19995;-80
2024/04/25 18:34:40;;;;;;;;;;;;;;;7.31;100.00;98518.41;5293276;27;19931;-81
2024/04/25 18:37:08;;;;;;;;;;;;;;;7.26;100.00;98518.63;5293448;27;19934;-81
2024/04/25 18:39:34;;;;;;;;;;;;;;;7.16;100.00;98516.53;5291967;27;19938;-80
2024/04/25 18:41:59;;;;;;;;;;;;;;;7.24;100.00;98509.97;5293413;27;19931;-80
2024/04/25 18:44:25;;;;;;;;;;;;;;;7.15;100.00;98518.31;5294916;26;20001;-81
2024/04/25 18:46:50;;;;;;;;;;;;;;;7.16;100.00;98509.47;5292006;27;19939;-83
2024/04/25 18:49:16;;;;;;;;;;;;;;;7.18;100.00;98518.16;5293866;27;19939;-85
2024/04/25 18:51:43;;;;;;;;;;;;;;;7.19;100.00;98517.22;5292931;26;19931;-85
2024/04/25 18:54:09;;;;;;;;;;;;;;;7.18;100.00;98514.66;5292455;27;20271;-80
2024/04/25 18:56:35;;;;;;;;;;;;;;;7.18;100.00;98517.28;5295295;27;19936;-84
2024/04/25 18:59:00;;;;;;;;;;;;;;;7.18;100.00;98514.66;5319384;26;20266;-79
2024/04/25 19:01:28;;;;;;;;;;;;;;;7.13;100.00;98516.66;5293146;27;19930;-88
2024/04/25 19:03:53;;;;;;;;;;;;;;;7.13;100.00;98519.31;5292951;27;19931;-81
2024/04/25 19:06:19;;;;;;;;;;;;;;;7.13;100.00;98516.66;5295174;27;19942;-80
2024/04/25 19:08:44;;;;;;;;;;;;;;;7.15;100.00;98518.31;5294285;27;20267;-85
2024/04/25 19:11:09;;;;;;;;;;;;;;;7.08;100.00;98512.50;5293591;26;20009;-80
2024/04/25 19:13:36;;;;;;;;;;;;;;;7.08;100.00;98515.13;5294205;27;19935;-80
2024/04/25 19:16:01;;;;;;;;;;;;;;;7.03;100.00;98511.84;5292543;27;20312;-80
2024/04/25 19:18:27;;;;;;;;;;;;;;;7.04;100.00;98513.56;5293031;27;19946;-81
2024/04/25 19:21:01;;;;;;;;;;;;;;;7.05;100.00;98514.41;5293662;27;20350;-81
2024/04/25 19:23:27;;;;;;;;;;;;;;;7.10;100.00;98522.97;5294562;26;19937;-81
2024/04/25 19:25:52;;;;;;;;;;;;;;;7.06;100.00;98516.13;5292973;27;19930;-81
2024/04/25 19:28:17;;;;;;;;;;;;;;;7.06;100.00;98516.13;5292116;27;20095;-80
2024/04/25 19:30:43;;;;;;;;;;;;;;;7.04;100.00;98512.72;5290908;27;19943;-80
2024/04/25 19:33:08;;;;;;;;;;;;;;;7.03;100.00;98514.47;5290830;27;19938;-83
2024/04/25 19:35:33;;;;;;;;;;;;;;;7.41;100.00;98521.44;5294344;27;19980;-77
2024/04/25 19:38:02;;;;;;;;;;;;;;;7.91;100.00;98511.88;5293654;27;19930;-82
2024/04/25 19:40:27;;;;;;;;;;;;;;;7.51;100.00;98516.56;5294794;26;19934;-80
2024/04/25 19:42:52;;;;;;;;;;;;;;;7.42;100.00;98513.47;5292546;27;19938;-80
2024/04/25 19:45:18;;;;;;;;;;;;;;;7.40;100.00;98515.31;5293202;27;19931;-81
2024/04/25 19:47:43;;;;;;;;;;;;;;;7.32;100.00;98517.47;5292630;27;20435;-82
2024/04/25 19:50:08;;;;;;;;;;;;;;;7.31;100.00;98520.16;5293422;27;20350;-80
2024/04/25 19:52:34;;;;;;;;;;;;;;;7.28;100.00;98519.41;5292943;27;19941;-82
2024/04/25 19:54:59;;;;;;;;;;;;;;;7.29;100.00;98520.25;5290709;27;19941;-83
2024/04/25 19:57:24;;;;;;;;;;;;;;;7.27;100.00;98527.38;5293544;27;19940;-82
2024/04/25 19:59:50;;;;;;;;;;;;;;;7.26;100.00;98523.06;5292298;27;19931;-82
2024/04/25 20:02:18;;;;;;;;;;;;;;;7.24;100.00;98522.25;5293032;27;19930;-82
2024/04/25 20:04:44;;;;;;;;;;;;;;;7.29;100.00;98517.63;5292081;27;19935;-82
2024/04/25 20:07:10;;;;;;;;;;;;;;;7.28;100.00;98521.19;5293405;27;20382;-82
2024/04/25 20:09:35;;;;;;;;;;;;;;;7.25;100.00;98519.56;5291480;27;19942;-81
2024/04/25 20:12:00;;;;;;;;;;;;;;;7.26;100.00;98525.69;5292475;27;19939;-82
2024/04/25 20:14:25;;;;;;;;;;;;;;;7.30;100.00;98513.22;5294400;27;20001;-82
2024/04/25 20:16:51;;;;;;;;;;;;;;;7.32;100.00;98509.56;5292154;27;19931;-81
2024/04/25 20:22:00;;;;;;;;;;;;;;;7.30;100.00;98518.50;5292861;27;19967;-81
2024/04/25 20:24:25;;;;;;;;;;;;;;;7.27;100.00;98511.56;5292646;27;19930;-82
2024/04/25 20:26:51;;;;;;;;;;;;;;;7.30;100.00;98516.69;5292392;27;19938;-83
2024/04/25 20:29:17;;;;;;;;;;;;;;;7.30;100.00;98523.75;5293045;27;19946;-81
2024/04/25 20:31:42;;;;;;;;;;;;;;;7.32;100.00;98522.72;5290520;27;20354;-81
2024/04/25 20:34:07;;;;;;;;;;;;;;;7.34;100.00;98520.03;5292059;27;20279;-80
2024/04/25 20:36:35;;;;;;;;;;;;;;;7.30;100.00;98516.69;5293694;27;20002;-81
2024/04/25 20:39:00;;;;;;;;;;;;;;;7.30;100.00;98521.97;5291250;26;20344;-81
2024/04/25 20:41:26;;;;;;;;;;;;;;;7.27;100.00;98515.09;5291594;27;19943;-81
2024/04/25 20:43:51;;;;;;;;;;;;;;;7.28;100.00;98508.03;5292942;26;20267;-82
2024/04/25 20:46:23;;;;;;;;;;;;;;;7.31;100.00;98510.50;5292448;27;19931;-83
2024/04/25 20:48:49;;;;;;;;;;;;;;;7.32;100.00;98514.81;5291486;27;19938;-81